createdAt,value
2023-10-10T00:04:42.434Z,76.20
2023-10-10T00:09:46.036Z,76.90
2023-10-10T00:14:52.113Z,77.40
2023-10-10T00:19:55.900Z,77.90
2023-10-10T00:24:58.141Z,78.30
2023-10-10T00:30:01.497Z,79.00
2023-10-10T00:35:07.306Z,76.80
2023-10-10T00:40:11.468Z,76.00
2023-10-10T00:45:15.648Z,77.50
2023-10-10T00:50:26.081Z,78.20
2023-10-10T00:55:34.755Z,77.90
2023-10-10T01:00:43.661Z,77.90
2023-10-10T01:05:53.788Z,77.20
2023-10-10T01:11:02.300Z,78.60
2023-10-10T01:16:06.875Z,79.40
2023-10-10T01:21:10.550Z,80.40
2023-10-10T01:26:12.683Z,80.40
2023-10-10T01:31:19.460Z,81.20
2023-10-10T01:36:22.837Z,78.00
2023-10-10T01:41:40.128Z,78.00
2023-10-10T01:46:42.900Z,78.60
2023-10-10T01:51:45.217Z,80.00
2023-10-10T01:56:48.339Z,81.10
2023-10-10T02:01:53.024Z,80.50
2023-10-10T02:07:05.849Z,81.60
2023-10-10T02:12:17.233Z,83.10
2023-10-10T02:17:23.787Z,79.70
2023-10-10T02:22:48.579Z,81.90
2023-10-10T02:27:57.205Z,83.00
2023-10-10T02:32:59.465Z,83.10
2023-10-10T02:38:06.344Z,83.70
2023-10-10T02:43:20.780Z,84.00
2023-10-10T02:48:24.891Z,82.10
2023-10-10T02:53:27.062Z,83.10
2023-10-10T02:58:39.305Z,83.60
2023-10-10T03:03:43.486Z,83.10
2023-10-10T03:08:53.195Z,81.20
2023-10-10T03:14:02.293Z,82.00
2023-10-10T03:19:04.918Z,83.40
2023-10-10T03:24:16.932Z,85.70
2023-10-10T03:29:28.597Z,86.00
2023-10-10T03:34:34.170Z,86.20
2023-10-10T03:39:55.785Z,88.30
2023-10-10T03:45:16.771Z,83.90
2023-10-10T03:50:37.806Z,86.00
2023-10-10T03:55:58.779Z,88.80
2023-10-10T04:01:20.210Z,84.50
2023-10-10T04:06:41.063Z,85.40
2023-10-10T04:12:01.924Z,85.30
2023-10-10T04:17:23.071Z,88.10
2023-10-10T04:22:43.583Z,90.00
2023-10-10T04:28:04.358Z,90.20
2023-10-10T04:33:24.985Z,88.80
2023-10-10T04:38:45.603Z,84.30
2023-10-10T04:44:06.224Z,87.90
2023-10-10T04:49:26.716Z,90.30
2023-10-10T04:54:47.279Z,91.30
2023-10-10T05:00:08.037Z,91.40
2023-10-10T05:05:29.047Z,90.80
2023-10-10T05:10:49.617Z,89.10
2023-10-10T05:16:10.639Z,91.30
2023-10-10T05:21:31.271Z,91.80
2023-10-10T05:26:33.427Z,92.60
2023-10-10T05:31:37.064Z,91.90
2023-10-10T05:36:39.268Z,93.40
2023-10-10T05:41:42.000Z,92.70
2023-10-10T05:46:45.064Z,90.60
2023-10-10T05:51:47.225Z,91.30
2023-10-10T05:56:49.339Z,92.90
2023-10-10T06:01:51.796Z,88.50
2023-10-10T06:06:54.025Z,90.20
2023-10-10T06:11:56.207Z,91.90
2023-10-10T06:16:58.459Z,92.80
2023-10-10T06:22:03.973Z,93.40
2023-10-10T06:27:10.327Z,93.00
2023-10-10T06:32:17.411Z,90.30
2023-10-10T06:37:19.712Z,89.60
2023-10-10T06:42:28.613Z,93.30
2023-10-10T06:47:33.791Z,91.20
2023-10-10T06:52:37.903Z,88.00
2023-10-10T06:57:43.605Z,91.30
2023-10-10T07:02:55.095Z,89.50
2023-10-10T07:08:00.599Z,90.70
2023-10-10T07:13:04.883Z,89.40
2023-10-10T07:18:16.501Z,86.30
2023-10-10T07:23:22.051Z,89.10
2023-10-10T07:28:27.345Z,89.10
2023-10-10T07:33:41.984Z,88.10
2023-10-10T07:38:44.209Z,86.80
2023-10-10T07:43:50.894Z,88.70
2023-10-10T07:48:55.963Z,87.30
2023-10-10T07:54:04.246Z,84.60
2023-10-10T07:59:07.086Z,86.40
2023-10-10T08:04:09.536Z,84.50
2023-10-10T08:09:12.879Z,84.90
2023-10-10T08:14:15.274Z,86.10
2023-10-10T08:19:17.572Z,78.90
2023-10-10T08:24:21.601Z,79.20
2023-10-10T08:29:28.474Z,83.50
2023-10-10T08:34:30.756Z,83.40
2023-10-10T08:39:40.667Z,80.80
2023-10-10T08:44:49.294Z,78.60
2023-10-10T08:49:51.935Z,79.10
2023-10-10T08:54:54.864Z,78.70
2023-10-10T08:59:57.289Z,74.40
2023-10-10T09:04:59.633Z,75.50
2023-10-10T09:10:15.355Z,79.20
2023-10-10T09:15:18.534Z,78.20
2023-10-10T09:20:31.777Z,78.00
2023-10-10T09:25:43.764Z,77.90
2023-10-10T09:31:04.601Z,76.70
2023-10-10T09:36:10.188Z,76.10
2023-10-10T09:41:37.615Z,74.60
2023-10-10T09:47:01.700Z,74.60
2023-10-10T09:52:22.891Z,73.50
2023-10-10T09:57:28.225Z,73.80
2023-10-10T10:02:42.013Z,75.40
2023-10-10T10:08:14.152Z,76.50
2023-10-10T10:13:57.818Z,77.10
2023-10-10T10:19:18.809Z,76.40
2023-10-10T10:24:34.447Z,75.30
2023-10-10T10:29:38.869Z,74.70
2023-10-10T10:34:47.139Z,74.30
2023-10-10T10:40:08.061Z,73.50
2023-10-10T10:45:37.744Z,73.70
2023-10-10T10:50:42.563Z,75.50
2023-10-10T10:56:04.840Z,71.90
2023-10-10T11:01:09.822Z,72.50
2023-10-10T11:06:32.627Z,68.70
2023-10-10T11:11:34.827Z,65.50
2023-10-10T11:16:40.109Z,61.20
2023-10-10T11:21:50.137Z,60.80
2023-10-10T11:27:07.165Z,60.10
2023-10-10T11:32:12.922Z,64.30
2023-10-10T11:37:25.628Z,65.90
2023-10-10T11:42:34.599Z,63.20
2023-10-10T11:47:46.243Z,65.10
2023-10-10T11:52:54.915Z,67.30
2023-10-10T11:58:07.769Z,67.40
2023-10-10T12:03:15.334Z,67.10
2023-10-10T12:08:25.997Z,68.10
2023-10-10T12:13:34.978Z,68.20
2023-10-10T12:18:45.250Z,65.20
2023-10-10T12:23:49.347Z,66.10
2023-10-10T12:28:53.997Z,68.10
2023-10-10T12:33:56.170Z,66.20
2023-10-10T12:39:06.030Z,67.90
2023-10-10T12:44:08.427Z,68.20
2023-10-10T12:49:13.195Z,68.50
2023-10-10T12:54:19.157Z,68.40
2023-10-10T13:04:32.833Z,68.10
2023-10-10T13:09:43.819Z,68.20
2023-10-10T13:14:52.172Z,68.30
2023-10-10T13:19:54.337Z,68.00
2023-10-10T13:24:57.197Z,67.90
2023-10-10T13:29:59.395Z,67.00
2023-10-10T13:35:02.094Z,66.30
2023-10-10T13:40:07.216Z,65.90
2023-10-10T13:45:13.044Z,66.00
2023-10-10T13:50:32.870Z,65.70
2023-10-10T13:55:35.607Z,65.80
2023-10-10T14:00:44.677Z,66.20
2023-10-10T14:06:02.151Z,65.90
2023-10-10T14:11:05.472Z,66.50
2023-10-10T14:16:07.784Z,67.10
2023-10-10T14:21:12.316Z,66.70
2023-10-10T14:26:14.693Z,67.40
2023-10-10T14:31:19.130Z,67.40
2023-10-10T14:36:22.821Z,67.90
2023-10-10T14:41:33.765Z,68.10
2023-10-10T14:46:36.080Z,63.30
2023-10-10T14:51:38.925Z,62.30
2023-10-10T14:56:51.611Z,67.60
2023-10-10T15:01:57.295Z,63.50
2023-10-10T15:07:00.497Z,67.60
2023-10-10T15:12:03.323Z,65.60
2023-10-10T15:17:06.503Z,64.40
2023-10-10T15:22:17.312Z,67.30
2023-10-10T15:27:20.775Z,64.70
2023-10-10T15:32:22.951Z,67.20
2023-10-10T15:37:28.115Z,64.90
2023-10-10T15:42:30.340Z,65.40
2023-10-10T15:47:32.927Z,66.80
2023-10-10T15:52:35.171Z,66.70
2023-10-10T15:57:37.379Z,66.40
2023-10-10T16:02:41.393Z,67.10
2023-10-10T16:07:56.001Z,67.80
2023-10-10T16:13:08.521Z,67.90
2023-10-10T16:18:11.490Z,68.90
2023-10-10T16:23:13.958Z,69.40
2023-10-10T16:28:16.078Z,70.40
2023-10-10T16:33:22.348Z,71.40
2023-10-10T16:38:24.685Z,74.00
2023-10-10T16:43:26.858Z,69.90
2023-10-10T16:48:32.687Z,70.90
2023-10-10T16:53:40.978Z,72.10
2023-10-10T16:58:45.006Z,73.40
2023-10-10T17:03:50.293Z,75.90
2023-10-10T17:08:55.913Z,73.30
2023-10-10T17:14:01.049Z,70.10
2023-10-10T17:19:16.315Z,74.80
2023-10-10T17:24:22.355Z,74.30
2023-10-10T17:29:28.060Z,71.20
2023-10-10T17:34:34.788Z,71.50
2023-10-10T17:39:37.545Z,71.40
2023-10-10T17:44:39.846Z,73.10
2023-10-10T17:49:42.465Z,68.60
2023-10-10T17:54:46.759Z,72.70
2023-10-10T17:59:53.936Z,70.00
2023-10-10T18:04:56.499Z,69.40
2023-10-10T18:09:58.703Z,73.50
2023-10-10T18:15:01.991Z,69.40
2023-10-10T18:20:15.771Z,70.20
2023-10-10T18:25:18.055Z,72.80
2023-10-10T18:30:22.011Z,70.20
2023-10-10T18:35:28.281Z,70.00
2023-10-10T18:40:31.523Z,71.80
2023-10-10T18:45:38.460Z,75.80
2023-10-10T18:50:40.907Z,74.80
2023-10-10T18:55:43.144Z,71.80
2023-10-10T19:00:45.416Z,69.80
2023-10-10T19:05:53.947Z,70.60
2023-10-10T19:10:56.186Z,71.70
2023-10-10T19:15:58.479Z,73.20
2023-10-10T19:21:01.532Z,73.30
2023-10-10T19:26:05.850Z,74.90
2023-10-10T19:31:08.031Z,73.00
2023-10-10T19:36:10.624Z,72.00
2023-10-10T19:41:16.162Z,75.00
2023-10-10T19:46:21.480Z,73.50
2023-10-10T19:51:23.790Z,74.20
2023-10-10T19:56:26.056Z,77.30
2023-10-10T20:01:28.687Z,75.30
2023-10-10T20:06:31.467Z,77.10
2023-10-10T20:11:36.859Z,78.20
2023-10-10T20:16:39.892Z,74.30
2023-10-10T20:21:42.199Z,75.20
2023-10-10T20:26:44.466Z,75.20
2023-10-10T20:31:46.651Z,75.20
2023-10-10T20:36:48.810Z,76.70
2023-10-10T20:41:51.113Z,74.30
2023-10-10T20:46:53.354Z,74.80
2023-10-10T20:51:56.183Z,75.10
2023-10-10T20:56:58.506Z,76.40
2023-10-10T21:02:01.051Z,77.00
2023-10-10T21:07:03.319Z,76.50
2023-10-10T21:12:08.793Z,77.10
2023-10-10T21:17:13.602Z,76.70
2023-10-10T21:22:16.576Z,78.90
2023-10-10T21:27:19.992Z,75.40
2023-10-10T21:32:22.710Z,82.40
2023-10-10T21:37:25.413Z,77.50
2023-10-10T21:42:27.598Z,76.50
2023-10-10T21:47:29.778Z,77.10
2023-10-10T21:52:32.053Z,78.40
2023-10-10T21:57:37.306Z,80.20
2023-10-10T22:02:39.657Z,79.80
2023-10-10T22:07:44.978Z,79.10
2023-10-10T22:12:50.534Z,77.80
2023-10-10T22:17:58.694Z,79.40
2023-10-10T22:23:02.158Z,81.80
2023-10-10T22:28:05.766Z,83.00
2023-10-10T22:33:12.271Z,81.60
2023-10-10T22:38:14.771Z,79.40
2023-10-10T22:43:16.947Z,78.60
2023-10-10T22:48:19.211Z,79.60
2023-10-10T22:53:21.381Z,80.20
2023-10-10T22:58:23.490Z,82.70
2023-10-10T23:03:25.819Z,82.50
2023-10-10T23:08:27.959Z,83.10
2023-10-10T23:13:30.035Z,83.40
2023-10-10T23:18:37.495Z,82.10
2023-10-10T23:23:42.458Z,82.80
2023-10-10T23:28:45.582Z,81.80
2023-10-10T23:33:47.740Z,81.50
2023-10-10T23:38:50.147Z,84.10
2023-10-10T23:43:52.307Z,90.70
2023-10-10T23:48:56.208Z,88.20
2023-10-10T23:53:59.819Z,81.30
2023-10-10T23:59:03.523Z,86.00
